TimeCST,TemperatureF,Dew PointF,Humidity,Sea Level PressureIn,VisibilityMPH,Wind Direction,Wind SpeedMPH,Gust SpeedMPH,PrecipitationIn,Events,Conditions,WindDirDegrees,DateUTC
12:15 AM,17.2,11.8,79,30.31,10.0,NW,4.6,-,N/A,,Scattered Clouds,320,2013-03-07 06:15:00
12:35 AM,14.2,10.2,84,30.32,10.0,WNW,3.5,-,N/A,,Clear,290,2013-03-07 06:35:00
12:55 AM,17.4,13.8,86,30.32,10.0,Calm,Calm,-,N/A,,Clear,0,2013-03-07 06:55:00
1:15 AM,14.5,11.8,89,30.33,10.0,Calm,Calm,-,N/A,,Clear,0,2013-03-07 07:15:00
1:35 AM,11.8,8.6,87,30.33,10.0,Calm,Calm,-,N/A,,Clear,0,2013-03-07 07:35:00
1:55 AM,10.4,7.2,87,30.34,10.0,Calm,Calm,-,N/A,,Clear,0,2013-03-07 07:55:00
2:15 AM,11.3,8.1,87,30.34,10.0,Calm,Calm,-,N/A,,Clear,0,2013-03-07 08:15:00
2:35 AM,8.2,4.3,84,30.34,7.0,West,3.5,-,N/A,,Clear,270,2013-03-07 08:35:00
2:55 AM,9.0,5.7,87,30.34,1.2,Calm,Calm,-,N/A,,Unknown,0,2013-03-07 08:55:00
3:15 AM,7.3,3.2,83,30.34,7.0,Calm,Calm,-,N/A,,Clear,0,2013-03-07 09:15:00
3:35 AM,6.8,2.1,81,30.33,0.8,Calm,Calm,-,N/A,,Unknown,0,2013-03-07 09:35:00
3:55 AM,6.4,2.3,83,30.33,1.5,Calm,Calm,-,N/A,,Unknown,0,2013-03-07 09:55:00
4:15 AM,2.3,-2.2,81,30.33,5.0,Calm,Calm,-,N/A,,Clear,0,2013-03-07 10:15:00
4:35 AM,4.8,-0.0,80,30.34,7.0,Calm,Calm,-,N/A,,Clear,0,2013-03-07 10:35:00
4:55 AM,6.1,1.8,82,30.35,7.0,Calm,Calm,-,N/A,,Clear,0,2013-03-07 10:55:00
5:15 AM,6.1,1.9,83,30.35,5.0,Calm,Calm,-,N/A,,Clear,0,2013-03-07 11:15:00
5:35 AM,5.4,1.0,82,30.35,1.5,Calm,Calm,-,N/A,,Unknown,0,2013-03-07 11:35:00
5:55 AM,1.4,-3.6,79,30.35,2.0,Calm,Calm,-,N/A,,Clear,0,2013-03-07 11:55:00
6:15 AM,3.4,-0.8,83,30.35,0.2,Calm,Calm,-,N/A,,Overcast,0,2013-03-07 12:15:00
6:35 AM,3.0,-1.7,81,30.36,4.0,Calm,Calm,-,N/A,,Mostly Cloudy,0,2013-03-07 12:35:00
6:55 AM,1.6,-3.1,81,30.36,1.0,Calm,Calm,-,N/A,,Overcast,0,2013-03-07 12:55:00
7:15 AM,3.2,-2.0,79,30.37,0.2,Calm,Calm,-,N/A,,Mostly Cloudy,0,2013-03-07 13:15:00
7:35 AM,5.9,1.2,81,30.38,1.0,Calm,Calm,-,N/A,,Unknown,0,2013-03-07 13:35:00
7:55 AM,6.3,1.9,82,30.38,2.5,Calm,Calm,-,N/A,,Clear,0,2013-03-07 13:55:00
8:15 AM,7.9,3.2,81,30.39,1.0,Calm,Calm,-,N/A,,Unknown,0,2013-03-07 14:15:00
8:35 AM,11.1,7.3,85,30.39,4.0,Calm,Calm,-,N/A,,Clear,0,2013-03-07 14:35:00
8:55 AM,12.9,8.6,83,30.40,7.0,Calm,Calm,-,N/A,,Clear,0,2013-03-07 14:55:00
9:15 AM,15.3,11.7,86,30.40,10.0,Calm,Calm,-,N/A,,Clear,0,2013-03-07 15:15:00
9:35 AM,17.1,13.5,86,30.39,10.0,Calm,Calm,-,N/A,,Clear,0,2013-03-07 15:35:00
9:55 AM,20.1,16.5,86,30.38,10.0,Calm,Calm,-,N/A,,Clear,0,2013-03-07 15:55:00
10:15 AM,21.6,17.6,85,30.39,10.0,Calm,Calm,-,N/A,,Clear,0,2013-03-07 16:15:00
10:35 AM,24.1,19.2,82,30.39,10.0,Calm,Calm,-,N/A,,Clear,0,2013-03-07 16:35:00
10:55 AM,27.1,16.9,65,30.39,10.0,Calm,Calm,-,N/A,,Clear,0,2013-03-07 16:55:00
11:15 AM,28.2,16.7,62,30.39,10.0,NNE,3.5,-,N/A,,Clear,30,2013-03-07 17:15:00
11:35 AM,29.3,18.0,63,30.39,10.0,NNE,4.6,-,N/A,,Clear,30,2013-03-07 17:35:00
11:55 AM,29.8,18.0,61,30.38,10.0,NE,5.8,-,N/A,,Clear,40,2013-03-07 17:55:00
12:15 PM,30.7,17.8,59,30.38,10.0,NNE,3.5,-,N/A,,Clear,30,2013-03-07 18:15:00
12:35 PM,31.6,18.5,58,30.38,10.0,NNE,3.5,-,N/A,,Clear,30,2013-03-07 18:35:00
12:55 PM,32.0,18.9,58,30.37,10.0,NE,4.6,-,N/A,,Clear,40,2013-03-07 18:55:00
1:15 PM,32.9,19.6,58,30.36,10.0,NNE,3.5,-,N/A,,Clear,20,2013-03-07 19:15:00
1:35 PM,32.9,19.4,58,30.37,10.0,NNE,4.6,-,N/A,,Clear,20,2013-03-07 19:35:00
1:55 PM,32.5,19.6,59,30.37,10.0,NNE,3.5,-,N/A,,Clear,30,2013-03-07 19:55:00
2:15 PM,32.2,19.9,61,30.36,10.0,NNE,4.6,-,N/A,,Clear,30,2013-03-07 20:15:00
2:35 PM,33.6,19.2,56,30.37,10.0,NNE,4.6,-,N/A,,Clear,20,2013-03-07 20:35:00
2:55 PM,33.1,19.4,57,30.37,10.0,NE,5.8,-,N/A,,Clear,40,2013-03-07 20:55:00
3:15 PM,32.9,19.0,57,30.35,10.0,NE,4.6,-,N/A,,Clear,40,2013-03-07 21:15:00
3:35 PM,33.4,18.7,55,30.35,10.0,NE,5.8,-,N/A,,Clear,40,2013-03-07 21:35:00
3:55 PM,32.0,18.1,57,30.36,10.0,NNE,5.8,-,N/A,,Clear,30,2013-03-07 21:55:00
4:15 PM,32.0,17.1,54,30.35,10.0,NNE,4.6,-,N/A,,Clear,20,2013-03-07 22:15:00
4:35 PM,32.0,16.7,53,30.36,10.0,NNE,5.8,-,N/A,,Clear,30,2013-03-07 22:35:00
4:55 PM,29.1,16.7,60,30.36,10.0,NE,4.6,-,N/A,,Clear,50,2013-03-07 22:55:00
5:15 PM,26.2,15.6,64,30.36,10.0,NE,5.8,-,N/A,,Clear,50,2013-03-07 23:15:00
5:35 PM,29.8,18.0,61,30.37,10.0,ENE,4.6,-,N/A,,Clear,70,2013-03-07 23:35:00
5:55 PM,30.2,17.1,58,30.37,10.0,East,5.8,-,N/A,,Clear,80,2013-03-07 23:55:00
7:35 PM,17.4,11.8,79,30.39,10.0,Calm,Calm,-,N/A,,Clear,0,2013-03-08 01:35:00
7:55 PM,15.8,10.2,79,30.39,10.0,Calm,Calm,-,N/A,,Clear,0,2013-03-08 01:55:00
8:15 PM,15.8,11.1,82,30.40,10.0,Calm,Calm,-,N/A,,Clear,0,2013-03-08 02:15:00
8:35 PM,14.9,10.0,81,30.39,10.0,Calm,Calm,-,N/A,,Clear,0,2013-03-08 02:35:00
8:55 PM,14.5,10.4,84,30.40,10.0,Calm,Calm,-,N/A,,Clear,0,2013-03-08 02:55:00
9:15 PM,13.1,9.1,84,30.40,10.0,Calm,Calm,-,N/A,,Clear,0,2013-03-08 03:15:00
9:35 PM,12.0,7.7,83,30.40,10.0,Calm,Calm,-,N/A,,Clear,0,2013-03-08 03:35:00
9:55 PM,9.7,6.1,85,30.40,10.0,Calm,Calm,-,N/A,,Clear,0,2013-03-08 03:55:00
10:15 PM,10.4,7.0,86,30.40,10.0,Calm,Calm,-,N/A,,Clear,0,2013-03-08 04:15:00
10:35 PM,8.4,4.6,85,30.40,10.0,Calm,Calm,-,N/A,,Clear,0,2013-03-08 04:35:00
10:55 PM,10.0,7.0,87,30.38,7.0,Calm,Calm,-,N/A,,Clear,0,2013-03-08 04:55:00
11:15 PM,9.9,6.6,87,30.39,7.0,WNW,3.5,-,N/A,,Clear,290,2013-03-08 05:15:00
11:35 PM,9.1,5.9,87,30.39,7.0,Calm,Calm,-,N/A,,Clear,0,2013-03-08 05:35:00
11:55 PM,8.8,5.2,85,30.40,7.0,Calm,Calm,-,N/A,,Clear,0,2013-03-08 05:55:00